createdAt,value
2023-08-15T00:00:13.346Z,0.00
2023-08-15T00:01:13.796Z,0.00
2023-08-15T00:02:13.875Z,0.00
2023-08-15T00:03:14.012Z,0.00
2023-08-15T00:04:12.950Z,0.00
2023-08-15T00:05:12.862Z,0.00
2023-08-15T00:06:13.785Z,0.00
2023-08-15T00:07:14.003Z,0.00
2023-08-15T00:08:13.190Z,0.00
2023-08-15T00:09:13.020Z,0.00
2023-08-15T00:10:13.147Z,0.00
2023-08-15T00:11:13.016Z,0.00
2023-08-15T00:12:13.230Z,0.00
2023-08-15T00:13:13.251Z,0.00
2023-08-15T00:14:13.136Z,0.00
2023-08-15T00:15:13.262Z,0.00
2023-08-15T00:16:13.270Z,0.00
2023-08-15T00:17:13.226Z,0.00
2023-08-15T00:18:13.217Z,0.00
2023-08-15T00:19:13.346Z,0.00
2023-08-15T00:20:13.173Z,0.00
2023-08-15T00:21:13.179Z,0.00
2023-08-15T00:22:12.961Z,0.00
2023-08-15T00:23:12.888Z,0.00
2023-08-15T00:24:12.935Z,0.00
2023-08-15T00:25:12.891Z,0.00
2023-08-15T00:26:12.930Z,0.00
2023-08-15T00:27:12.710Z,0.00
2023-08-15T00:28:13.811Z,0.00
2023-08-15T00:29:13.772Z,0.00
2023-08-15T00:30:13.798Z,0.00
2023-08-15T00:31:13.716Z,0.00
2023-08-15T00:32:13.747Z,0.00
2023-08-15T00:33:13.767Z,0.00
2023-08-15T00:34:13.812Z,0.00
2023-08-15T00:35:13.856Z,0.00
2023-08-15T00:36:13.703Z,0.00
2023-08-15T00:37:13.530Z,0.00
2023-08-15T00:38:13.381Z,0.00
2023-08-15T00:39:13.340Z,0.00
2023-08-15T00:40:13.309Z,0.00
2023-08-15T00:41:13.358Z,0.00
2023-08-15T00:42:13.384Z,0.00
2023-08-15T00:43:13.385Z,0.00
2023-08-15T00:44:13.422Z,0.00
2023-08-15T00:45:13.527Z,0.00
2023-08-15T00:46:13.699Z,0.00
2023-08-15T00:47:13.634Z,0.00
2023-08-15T00:48:13.394Z,0.00
2023-08-15T00:49:13.371Z,0.00
2023-08-15T00:50:14.079Z,0.00
2023-08-15T00:51:13.223Z,0.00
2023-08-15T00:52:13.181Z,0.00
2023-08-15T00:53:13.134Z,0.00
2023-08-15T00:54:12.951Z,0.00
2023-08-15T00:55:13.003Z,0.00
2023-08-15T00:56:12.946Z,0.00
2023-08-15T00:57:12.722Z,0.00
2023-08-15T00:58:13.505Z,0.00
2023-08-15T00:59:13.304Z,0.00
2023-08-15T01:00:13.363Z,0.00
2023-08-15T01:01:13.279Z,0.00
2023-08-15T01:02:13.271Z,0.00
2023-08-15T01:03:13.463Z,0.00
2023-08-15T01:04:13.566Z,0.00
2023-08-15T01:05:13.639Z,0.00
2023-08-15T01:06:13.500Z,0.00
2023-08-15T01:07:13.706Z,0.00
2023-08-15T01:08:13.834Z,0.00
2023-08-15T01:09:13.815Z,0.00
2023-08-15T01:10:13.786Z,0.00
2023-08-15T01:11:13.724Z,0.00
2023-08-15T01:12:13.730Z,0.00
2023-08-15T01:13:13.666Z,0.00
2023-08-15T01:14:13.700Z,0.00
2023-08-15T01:15:13.842Z,0.00
2023-08-15T01:16:13.904Z,0.00
2023-08-15T01:17:13.021Z,0.00
2023-08-15T01:18:13.242Z,0.00
2023-08-15T01:19:13.212Z,0.00
2023-08-15T01:20:12.906Z,0.00
2023-08-15T01:21:12.823Z,0.00
2023-08-15T01:22:13.781Z,0.00
2023-08-15T01:23:13.663Z,0.00
2023-08-15T01:24:14.124Z,0.00
2023-08-15T01:25:13.211Z,0.00
2023-08-15T01:26:12.941Z,0.00
2023-08-15T01:27:13.092Z,0.00
2023-08-15T01:28:13.231Z,0.00
2023-08-15T01:29:13.108Z,0.00
2023-08-15T01:30:12.961Z,0.00
2023-08-15T01:31:14.632Z,0.00
2023-08-15T01:32:13.633Z,0.00
2023-08-15T01:33:13.708Z,0.00
2023-08-15T01:34:13.684Z,0.00
2023-08-15T01:35:13.681Z,0.00
2023-08-15T01:36:13.961Z,0.00
2023-08-15T01:37:12.685Z,0.00
2023-08-15T01:38:13.751Z,0.00
2023-08-15T01:39:14.088Z,0.00
2023-08-15T01:40:13.006Z,0.00
2023-08-15T01:41:13.044Z,0.00
2023-08-15T01:42:12.912Z,0.00
2023-08-15T01:43:12.831Z,0.00
2023-08-15T01:44:13.739Z,0.00
2023-08-15T01:45:13.649Z,0.00
2023-08-15T01:46:13.560Z,0.00
2023-08-15T01:47:13.477Z,0.00
2023-08-15T01:48:13.334Z,0.00
2023-08-15T01:49:13.336Z,0.00
2023-08-15T01:50:18.401Z,0.00
2023-08-15T01:51:13.714Z,0.00
2023-08-15T01:52:13.590Z,0.00
2023-08-15T01:53:13.358Z,0.00
2023-08-15T01:54:13.321Z,0.00
2023-08-15T01:55:13.338Z,0.00
2023-08-15T01:56:13.414Z,0.00
2023-08-15T01:57:13.144Z,0.00
2023-08-15T01:58:12.937Z,0.00
2023-08-15T01:59:13.161Z,0.00
2023-08-15T02:00:13.352Z,0.00
2023-08-15T02:01:13.636Z,0.00
2023-08-15T02:02:13.672Z,0.00
2023-08-15T02:03:13.657Z,0.00
2023-08-15T02:04:13.774Z,0.00
2023-08-15T02:05:13.835Z,0.00
2023-08-15T02:06:12.931Z,0.00
2023-08-15T02:07:13.009Z,0.00
2023-08-15T02:08:13.016Z,0.00
2023-08-15T02:09:12.798Z,0.00
2023-08-15T02:10:13.938Z,0.00
2023-08-15T02:11:13.052Z,0.00
2023-08-15T02:12:13.129Z,0.00
2023-08-15T02:13:13.054Z,0.00
2023-08-15T02:14:13.062Z,0.00
2023-08-15T02:15:12.950Z,0.00
2023-08-15T02:16:13.034Z,0.00
2023-08-15T02:17:13.065Z,0.00
2023-08-15T02:18:12.886Z,0.00
2023-08-15T02:19:13.423Z,0.00
2023-08-15T02:20:13.641Z,0.00
2023-08-15T02:21:13.574Z,0.00
2023-08-15T02:22:13.678Z,0.00
2023-08-15T02:23:13.808Z,0.00
2023-08-15T02:24:13.771Z,0.00
2023-08-15T02:25:13.600Z,0.00
2023-08-15T02:26:13.614Z,0.00
2023-08-15T02:27:13.875Z,0.00
2023-08-15T02:28:13.788Z,0.00
2023-08-15T02:29:13.669Z,0.00
2023-08-15T02:30:13.604Z,0.00
2023-08-15T02:31:13.687Z,0.00
2023-08-15T02:32:13.639Z,0.00
2023-08-15T02:33:13.645Z,0.00
2023-08-15T02:34:13.790Z,0.00
2023-08-15T02:35:13.836Z,0.00
2023-08-15T02:36:13.838Z,0.00
2023-08-15T02:37:13.732Z,0.00
2023-08-15T02:38:13.814Z,0.00
2023-08-15T02:39:13.632Z,0.00
2023-08-15T02:40:13.539Z,0.00
2023-08-15T02:41:13.444Z,0.00
2023-08-15T02:42:13.591Z,0.00
2023-08-15T02:43:13.777Z,0.00
2023-08-15T02:44:13.848Z,0.00
2023-08-15T02:45:13.696Z,0.00
2023-08-15T02:46:13.593Z,0.00
2023-08-15T02:47:13.615Z,0.00
2023-08-15T02:48:13.631Z,0.00
2023-08-15T02:49:13.513Z,0.00
2023-08-15T02:50:14.012Z,0.00
2023-08-15T02:51:12.810Z,0.00
2023-08-15T02:52:13.852Z,0.00
2023-08-15T02:53:13.744Z,0.00
2023-08-15T02:54:13.652Z,0.00
2023-08-15T02:55:13.477Z,0.00
2023-08-15T02:56:13.221Z,0.00
2023-08-15T02:57:13.107Z,0.00
2023-08-15T02:58:13.165Z,0.00
2023-08-15T02:59:13.029Z,0.00
2023-08-15T03:00:12.793Z,0.00
2023-08-15T03:01:13.605Z,0.00
2023-08-15T03:02:13.802Z,0.00
2023-08-15T03:03:12.859Z,0.00
2023-08-15T03:04:13.205Z,0.00
2023-08-15T03:05:13.247Z,0.00
2023-08-15T03:06:13.160Z,0.00
2023-08-15T03:07:13.234Z,0.00
2023-08-15T03:08:13.330Z,0.00
2023-08-15T03:09:13.444Z,0.00
2023-08-15T03:10:13.468Z,0.00
2023-08-15T03:11:13.511Z,0.00
2023-08-15T03:12:13.533Z,0.00
2023-08-15T03:13:13.510Z,0.00
2023-08-15T03:14:13.415Z,0.00
2023-08-15T03:15:13.443Z,0.00
2023-08-15T03:16:13.527Z,0.00
2023-08-15T03:17:13.261Z,0.00
2023-08-15T03:18:13.657Z,0.00
2023-08-15T03:19:13.728Z,0.00
2023-08-15T03:20:13.834Z,0.00
2023-08-15T03:21:13.843Z,0.00
2023-08-15T03:22:13.786Z,0.00
2023-08-15T03:23:13.849Z,0.00
2023-08-15T03:24:13.849Z,0.00
2023-08-15T03:25:13.898Z,0.00
2023-08-15T03:26:17.768Z,0.00
2023-08-15T03:27:13.576Z,0.00
2023-08-15T03:28:13.360Z,0.00
2023-08-15T03:29:13.659Z,0.00
2023-08-15T03:30:13.773Z,0.00
2023-08-15T03:31:14.083Z,0.00
2023-08-15T03:32:13.098Z,0.00
2023-08-15T03:33:13.413Z,0.00
2023-08-15T03:34:13.248Z,0.00
2023-08-15T03:35:13.149Z,0.00
2023-08-15T03:36:13.072Z,0.00
2023-08-15T03:37:12.989Z,0.00
2023-08-15T03:38:12.906Z,0.00
2023-08-15T03:39:13.173Z,0.00
2023-08-15T03:40:13.574Z,0.00
2023-08-15T03:41:13.641Z,0.00
2023-08-15T03:42:13.909Z,0.00
2023-08-15T03:43:12.790Z,0.00
2023-08-15T03:44:13.840Z,0.00
2023-08-15T03:45:14.105Z,0.00
2023-08-15T03:46:13.278Z,0.00
2023-08-15T03:47:13.458Z,0.00
2023-08-15T03:48:13.359Z,0.00
2023-08-15T03:49:13.316Z,0.00
2023-08-15T03:50:13.052Z,0.00
2023-08-15T03:51:19.027Z,0.00
2023-08-15T03:52:13.582Z,0.00
2023-08-15T03:53:13.450Z,0.00
2023-08-15T03:54:13.406Z,0.00
2023-08-15T03:55:13.323Z,0.00
2023-08-15T03:56:13.634Z,0.77
2023-08-15T03:57:13.430Z,0.77
2023-08-15T03:58:13.198Z,0.77
2023-08-15T03:59:12.996Z,0.77
2023-08-15T04:00:12.816Z,1.53
2023-08-15T04:01:13.547Z,1.53
2023-08-15T04:02:13.702Z,1.53
2023-08-15T04:03:13.569Z,1.53
2023-08-15T04:04:13.450Z,2.29
2023-08-15T04:05:13.263Z,2.29
2023-08-15T04:06:13.285Z,2.29
2023-08-15T04:07:13.198Z,3.06
2023-08-15T04:08:13.073Z,3.06
2023-08-15T04:09:12.959Z,3.82
2023-08-15T04:10:12.887Z,3.82
2023-08-15T04:11:12.867Z,4.59
2023-08-15T04:12:13.808Z,4.59
2023-08-15T04:13:13.707Z,5.35
2023-08-15T04:14:13.647Z,5.35
2023-08-15T04:15:13.481Z,6.12
2023-08-15T04:16:13.723Z,6.88
2023-08-15T04:17:14.146Z,6.88
2023-08-15T04:18:13.047Z,7.65
2023-08-15T04:19:12.891Z,8.41
2023-08-15T04:20:12.652Z,9.18
2023-08-15T04:21:13.415Z,9.18
2023-08-15T04:22:13.243Z,10.71
2023-08-15T04:23:13.059Z,11.47
2023-08-15T04:24:13.272Z,12.24
2023-08-15T04:25:13.175Z,13.77
2023-08-15T04:26:13.208Z,15.30
2023-08-15T04:27:13.251Z,16.83
2023-08-15T04:28:13.449Z,19.89
2023-08-15T04:29:13.397Z,21.42
2023-08-15T04:30:13.273Z,24.48
2023-08-15T04:31:13.307Z,27.54
2023-08-15T04:32:13.578Z,33.66
2023-08-15T04:33:13.680Z,36.72
2023-08-15T04:34:13.521Z,42.84
2023-08-15T04:35:13.388Z,48.96
2023-08-15T04:36:13.213Z,55.08
2023-08-15T04:37:12.991Z,67.32
2023-08-15T04:38:13.168Z,73.44
2023-08-15T04:39:13.330Z,79.56
2023-08-15T04:40:13.555Z,85.68
2023-08-15T04:41:13.582Z,91.80
2023-08-15T04:42:14.201Z,97.92
2023-08-15T04:43:13.134Z,110.16
2023-08-15T04:44:13.202Z,122.40
2023-08-15T04:45:13.135Z,134.64
2023-08-15T04:46:13.081Z,146.88
2023-08-15T04:47:13.259Z,159.12
2023-08-15T04:48:13.251Z,171.36
2023-08-15T04:49:13.350Z,171.36
2023-08-15T04:50:13.236Z,159.12
2023-08-15T04:51:13.121Z,159.12
2023-08-15T04:52:13.488Z,220.32
2023-08-15T04:53:13.779Z,293.76
2023-08-15T04:54:13.879Z,367.20
2023-08-15T04:55:12.809Z,440.64
2023-08-15T04:56:13.657Z,538.56
2023-08-15T04:57:13.521Z,587.52
2023-08-15T04:58:13.406Z,636.48
2023-08-15T04:59:13.298Z,685.44
2023-08-15T05:00:13.279Z,734.40
2023-08-15T05:01:13.238Z,783.36
2023-08-15T05:02:13.260Z,881.28
2023-08-15T05:03:13.463Z,881.28
2023-08-15T05:04:13.359Z,979.20
2023-08-15T05:05:13.360Z,1175.04
2023-08-15T05:06:13.303Z,1272.96
2023-08-15T05:07:13.153Z,1272.96
2023-08-15T05:08:13.081Z,1370.88
2023-08-15T05:09:13.228Z,1370.88
2023-08-15T05:10:13.142Z,1370.88
2023-08-15T05:11:12.941Z,1370.88
2023-08-15T05:12:12.740Z,1272.96
2023-08-15T05:13:13.589Z,1175.04
2023-08-15T05:14:13.548Z,1175.04
2023-08-15T05:15:13.567Z,1175.04
2023-08-15T05:16:13.443Z,1272.96
2023-08-15T05:17:13.381Z,1272.96
2023-08-15T05:18:13.242Z,1370.88
2023-08-15T05:19:13.204Z,1370.88
2023-08-15T05:20:13.065Z,1272.96
2023-08-15T05:21:13.472Z,1272.96
2023-08-15T05:22:13.480Z,1272.96
2023-08-15T05:23:13.320Z,1370.88
2023-08-15T05:24:13.170Z,1566.72
2023-08-15T05:25:13.057Z,1762.56
2023-08-15T05:26:12.877Z,1958.40
2023-08-15T05:27:13.028Z,1958.40
2023-08-15T05:28:12.854Z,2154.24
2023-08-15T05:29:13.870Z,2154.24
2023-08-15T05:30:12.816Z,2154.24
2023-08-15T05:31:14.055Z,2154.24
2023-08-15T05:32:13.243Z,2154.24
2023-08-15T05:33:13.118Z,2350.08
2023-08-15T05:34:13.017Z,2350.08
2023-08-15T05:35:12.898Z,2154.24
2023-08-15T05:36:12.936Z,1958.40
2023-08-15T05:37:12.916Z,1762.56
2023-08-15T05:38:12.834Z,1566.72
2023-08-15T05:39:13.889Z,1566.72
2023-08-15T05:40:12.775Z,1762.56
2023-08-15T05:41:13.905Z,1958.40
2023-08-15T05:42:12.849Z,1958.40
2023-08-15T05:43:13.618Z,1958.40
2023-08-15T05:44:13.514Z,1762.56
2023-08-15T05:45:13.368Z,1762.56
2023-08-15T05:46:13.215Z,1762.56
2023-08-15T05:47:12.972Z,1762.56
2023-08-15T05:48:12.951Z,1762.56
2023-08-15T05:49:12.713Z,1566.72
2023-08-15T05:50:13.590Z,1566.72
2023-08-15T05:51:13.670Z,1566.72
2023-08-15T05:52:13.754Z,1566.72
2023-08-15T05:53:13.584Z,1566.72
2023-08-15T05:54:13.479Z,1566.72
2023-08-15T05:55:13.274Z,1566.72
2023-08-15T05:56:13.228Z,1762.56
2023-08-15T05:57:13.030Z,1958.40
2023-08-15T05:58:12.798Z,1958.40
2023-08-15T05:59:13.660Z,2154.24
2023-08-15T06:00:13.700Z,2350.08
2023-08-15T06:01:13.967Z,2545.92
2023-08-15T06:02:12.916Z,2937.60
2023-08-15T06:03:13.514Z,3133.44
2023-08-15T06:04:13.508Z,3133.44
2023-08-15T06:05:13.484Z,3525.12
2023-08-15T06:06:13.283Z,3916.80
2023-08-15T06:07:13.305Z,4308.48
2023-08-15T06:08:13.123Z,4700.16
2023-08-15T06:09:13.353Z,4700.16
2023-08-15T06:10:13.195Z,4700.16
2023-08-15T06:11:13.065Z,4700.16
2023-08-15T06:12:12.986Z,4700.16
2023-08-15T06:13:12.840Z,4700.16
2023-08-15T06:14:13.811Z,4308.48
2023-08-15T06:15:13.717Z,4700.16
2023-08-15T06:16:14.184Z,4308.48
2023-08-15T06:17:13.238Z,4700.16
2023-08-15T06:18:13.038Z,4700.16
2023-08-15T06:19:13.110Z,4700.16
2023-08-15T06:20:13.168Z,4700.16
2023-08-15T06:21:13.394Z,4700.16
2023-08-15T06:22:13.541Z,4700.16
2023-08-15T06:23:13.493Z,4308.48
2023-08-15T06:24:13.370Z,3916.80
2023-08-15T06:25:13.166Z,3525.12
2023-08-15T06:26:13.078Z,3133.44
2023-08-15T06:27:13.025Z,3133.44
2023-08-15T06:28:12.805Z,3525.12
2023-08-15T06:29:13.532Z,4308.48
2023-08-15T06:30:13.416Z,5483.52
2023-08-15T06:31:13.293Z,6266.88
2023-08-15T06:32:13.329Z,6266.88
2023-08-15T06:33:13.180Z,5875.20
2023-08-15T06:34:13.202Z,5091.84
2023-08-15T06:35:12.981Z,3916.80
2023-08-15T06:36:13.511Z,4308.48
2023-08-15T06:37:13.474Z,4308.48
2023-08-15T06:38:13.332Z,4700.16
2023-08-15T06:39:13.146Z,5091.84
2023-08-15T06:40:12.952Z,6266.88
2023-08-15T06:41:12.759Z,7833.60
2023-08-15T06:42:13.570Z,7050.24
2023-08-15T06:43:13.585Z,7050.24
2023-08-15T06:44:13.505Z,7050.24
2023-08-15T06:45:13.730Z,7050.24
2023-08-15T06:46:13.633Z,7050.24
2023-08-15T06:47:13.457Z,7050.24
2023-08-15T06:48:13.248Z,6266.88
2023-08-15T06:49:12.963Z,5875.20
2023-08-15T06:50:12.972Z,5875.20
2023-08-15T06:51:13.148Z,5875.20
2023-08-15T06:52:12.933Z,6266.88
2023-08-15T06:53:12.797Z,6266.88
2023-08-15T06:54:13.785Z,5875.20
2023-08-15T06:55:13.757Z,5875.20
2023-08-15T06:56:13.758Z,4700.16
2023-08-15T06:57:13.679Z,5483.52
2023-08-15T06:58:13.675Z,6266.88
2023-08-15T06:59:13.546Z,7050.24
2023-08-15T07:00:13.751Z,4700.16
2023-08-15T07:01:13.850Z,3916.80
2023-08-15T07:02:13.831Z,4700.16
2023-08-15T07:03:14.052Z,5483.52
2023-08-15T07:04:13.638Z,4700.16
2023-08-15T07:05:13.536Z,5875.20
2023-08-15T07:06:13.725Z,7050.24
2023-08-15T07:07:13.564Z,7833.60
2023-08-15T07:08:13.472Z,7833.60
2023-08-15T07:09:13.866Z,7833.60
2023-08-15T07:10:13.056Z,7833.60
2023-08-15T07:11:13.040Z,7050.24
2023-08-15T07:12:12.892Z,7833.60
2023-08-15T07:13:13.770Z,6266.88
2023-08-15T07:14:13.692Z,6266.88
2023-08-15T07:15:15.275Z,5875.20
2023-08-15T07:16:13.194Z,4700.16
2023-08-15T07:17:13.001Z,3525.12
2023-08-15T07:18:12.944Z,3525.12
2023-08-15T07:19:13.157Z,4308.48
2023-08-15T07:20:13.192Z,5875.20
2023-08-15T07:21:21.282Z,6266.88
2023-08-15T07:22:13.223Z,6266.88
2023-08-15T07:23:13.054Z,6266.88
2023-08-15T07:24:12.893Z,6266.88
2023-08-15T07:25:12.756Z,6266.88
2023-08-15T07:26:13.665Z,7050.24
2023-08-15T07:27:13.615Z,7833.60
2023-08-15T07:28:13.839Z,7050.24
2023-08-15T07:29:13.859Z,6266.88
2023-08-15T07:30:13.877Z,5483.52
2023-08-15T07:31:12.791Z,5483.52
2023-08-15T07:32:13.965Z,5091.84
2023-08-15T07:33:13.127Z,5091.84
2023-08-15T07:34:13.053Z,4700.16
2023-08-15T07:35:12.808Z,4700.16
2023-08-15T07:36:13.735Z,5091.84
2023-08-15T07:37:13.877Z,5091.84
2023-08-15T07:38:12.980Z,5483.52
2023-08-15T07:39:13.027Z,5091.84
2023-08-15T07:40:12.771Z,5483.52
2023-08-15T07:41:13.610Z,5483.52
2023-08-15T07:42:13.611Z,5483.52
2023-08-15T07:43:13.448Z,5091.84
2023-08-15T07:44:13.190Z,5483.52
2023-08-15T07:45:13.039Z,6266.88
2023-08-15T07:46:13.059Z,8616.96
2023-08-15T07:47:12.927Z,10967.04
2023-08-15T07:48:13.085Z,10183.68
2023-08-15T07:49:12.955Z,10967.04
2023-08-15T07:50:12.973Z,12533.76
2023-08-15T07:51:12.912Z,10967.04
2023-08-15T07:52:18.144Z,10183.68
2023-08-15T07:53:12.891Z,8616.96
2023-08-15T07:54:12.665Z,7833.60
2023-08-15T07:55:13.526Z,7050.24
2023-08-15T07:56:13.325Z,5875.20
2023-08-15T07:57:13.318Z,5875.20
2023-08-15T07:58:13.102Z,5875.20
2023-08-15T07:59:12.995Z,5483.52
2023-08-15T08:00:12.834Z,5483.52
2023-08-15T08:01:13.755Z,5091.84
2023-08-15T08:02:14.225Z,5483.52
2023-08-15T08:03:13.128Z,5483.52
2023-08-15T08:04:12.936Z,5091.84
2023-08-15T08:05:12.880Z,5483.52
2023-08-15T08:06:31.858Z,5875.20
2023-08-15T08:07:13.512Z,6266.88
2023-08-15T08:08:13.427Z,7050.24
2023-08-15T08:09:13.399Z,7833.60
2023-08-15T08:10:13.206Z,7833.60
2023-08-15T08:11:13.278Z,7833.60
2023-08-15T08:12:13.151Z,8616.96
2023-08-15T08:13:13.004Z,8616.96
2023-08-15T08:14:12.806Z,9400.32
2023-08-15T08:15:13.526Z,9400.32
2023-08-15T08:16:13.336Z,10183.68
2023-08-15T08:17:13.199Z,11750.40
2023-08-15T08:18:13.351Z,11750.40
2023-08-15T08:19:13.246Z,12533.76
2023-08-15T08:20:13.142Z,12533.76
2023-08-15T08:21:13.007Z,12533.76
2023-08-15T08:22:13.131Z,12533.76
2023-08-15T08:23:13.057Z,12533.76
2023-08-15T08:24:12.932Z,12533.76
2023-08-15T08:25:12.971Z,12533.76
2023-08-15T08:26:12.830Z,12533.76
2023-08-15T08:27:14.061Z,12533.76
2023-08-15T08:28:13.049Z,12533.76
2023-08-15T08:29:12.949Z,11750.40
2023-08-15T08:30:49.190Z,9400.32
2023-08-15T08:31:01.120Z,9400.32
2023-08-15T08:31:13.121Z,9400.32
2023-08-15T08:32:13.125Z,7833.60
2023-08-15T08:33:13.131Z,7050.24
2023-08-15T08:34:13.112Z,7833.60
2023-08-15T08:35:13.124Z,6266.88
2023-08-15T08:36:12.988Z,6266.88
2023-08-15T08:37:12.909Z,8616.96
2023-08-15T08:38:12.894Z,8616.96
2023-08-15T08:39:25.472Z,8616.96
2023-08-15T08:40:12.921Z,9400.32
2023-08-15T08:41:13.054Z,9400.32
2023-08-15T08:42:13.327Z,9400.32
2023-08-15T08:43:13.302Z,10183.68
2023-08-15T08:44:13.151Z,10967.04
2023-08-15T08:45:13.057Z,10967.04
2023-08-15T08:46:13.153Z,10967.04
2023-08-15T08:47:13.282Z,10183.68
2023-08-15T08:48:13.235Z,9400.32
2023-08-15T08:49:13.431Z,9400.32
2023-08-15T08:50:13.440Z,10967.04
2023-08-15T08:51:13.472Z,10967.04
2023-08-15T08:52:13.525Z,10967.04
2023-08-15T08:53:13.637Z,11750.40
2023-08-15T08:54:14.361Z,14100.48
2023-08-15T08:55:13.795Z,14100.48
2023-08-15T08:56:13.605Z,15667.20
2023-08-15T08:57:13.901Z,14100.48
2023-08-15T08:58:12.874Z,14100.48
2023-08-15T08:59:12.942Z,15667.20
2023-08-15T09:00:12.887Z,15667.20
2023-08-15T09:01:13.031Z,15667.20
2023-08-15T09:02:12.995Z,15667.20
2023-08-15T09:03:12.986Z,17233.92
2023-08-15T09:04:12.969Z,18800.64
2023-08-15T09:05:12.993Z,15667.20
2023-08-15T09:06:12.870Z,17233.92
2023-08-15T09:07:12.735Z,17233.92
2023-08-15T09:08:13.782Z,15667.20
2023-08-15T09:09:13.749Z,14100.48
2023-08-15T09:10:13.872Z,12533.76
2023-08-15T09:11:13.109Z,11750.40
2023-08-15T09:12:13.195Z,14100.48
2023-08-15T09:13:13.282Z,20367.36
2023-08-15T09:14:13.367Z,20367.36
2023-08-15T09:15:13.247Z,18800.64
2023-08-15T09:16:13.376Z,15667.20
2023-08-15T09:17:13.507Z,14100.48
2023-08-15T09:18:13.415Z,14100.48
2023-08-15T09:19:13.294Z,12533.76
2023-08-15T09:20:13.147Z,12533.76
2023-08-15T09:21:13.213Z,12533.76
2023-08-15T09:22:13.307Z,12533.76
2023-08-15T09:23:13.308Z,14100.48
2023-08-15T09:24:13.041Z,15667.20
2023-08-15T09:25:12.937Z,14100.48
2023-08-15T09:26:12.876Z,10183.68
2023-08-15T09:27:12.923Z,10183.68
2023-08-15T09:28:12.947Z,17233.92
2023-08-15T09:29:12.889Z,20367.36
2023-08-15T09:30:12.980Z,18800.64
2023-08-15T09:31:13.236Z,18800.64
2023-08-15T09:32:13.166Z,18800.64
2023-08-15T09:33:13.218Z,25067.52
2023-08-15T09:34:13.080Z,40734.72
2023-08-15T09:35:12.905Z,34467.84
2023-08-15T09:36:12.765Z,31334.40
2023-08-15T09:37:13.729Z,37601.28
2023-08-15T09:38:13.584Z,23500.80
2023-08-15T09:39:13.652Z,23500.80
2023-08-15T09:40:13.657Z,17233.92
2023-08-15T09:41:13.747Z,14100.48
2023-08-15T09:42:13.823Z,28200.96
2023-08-15T09:43:14.071Z,28200.96
2023-08-15T09:44:13.347Z,31334.40
2023-08-15T09:45:13.530Z,34467.84
2023-08-15T09:46:13.598Z,31334.40
2023-08-15T09:47:13.787Z,20367.36
2023-08-15T09:48:14.135Z,21934.08
2023-08-15T09:49:13.492Z,14100.48
2023-08-15T09:50:13.371Z,28200.96
2023-08-15T09:51:13.384Z,34467.84
2023-08-15T09:52:13.215Z,28200.96
2023-08-15T09:53:13.310Z,34467.84
2023-08-15T09:54:13.197Z,34467.84
2023-08-15T09:55:13.311Z,34467.84
2023-08-15T09:56:13.109Z,34467.84
2023-08-15T09:57:13.286Z,34467.84
2023-08-15T09:58:13.852Z,34467.84
2023-08-15T09:59:12.750Z,34467.84
2023-08-15T10:00:13.774Z,23500.80
2023-08-15T10:01:13.837Z,31334.40
2023-08-15T10:02:12.850Z,34467.84
2023-08-15T10:03:13.972Z,18800.64
2023-08-15T10:04:13.037Z,12533.76
2023-08-15T10:05:13.039Z,10183.68
2023-08-15T10:06:14.276Z,31334.40
2023-08-15T10:07:13.341Z,31334.40
2023-08-15T10:08:13.031Z,28200.96
2023-08-15T10:09:13.264Z,28200.96
2023-08-15T10:10:13.260Z,12533.76
2023-08-15T10:11:13.350Z,15667.20
2023-08-15T10:12:13.339Z,31334.40
2023-08-15T10:13:13.393Z,28200.96
2023-08-15T10:14:13.357Z,34467.84
2023-08-15T10:15:13.316Z,34467.84
2023-08-15T10:16:13.382Z,31334.40
2023-08-15T10:17:13.527Z,31334.40
2023-08-15T10:18:14.233Z,28200.96
2023-08-15T10:19:13.064Z,12533.76
2023-08-15T10:20:12.989Z,18800.64
2023-08-15T10:21:12.964Z,28200.96
2023-08-15T10:22:13.098Z,28200.96
2023-08-15T10:23:13.061Z,31334.40
2023-08-15T10:24:12.940Z,31334.40
2023-08-15T10:25:13.137Z,31334.40
2023-08-15T10:26:13.092Z,34467.84
2023-08-15T10:27:13.648Z,34467.84
2023-08-15T10:28:13.763Z,34467.84
2023-08-15T10:29:13.589Z,34467.84
2023-08-15T10:30:14.156Z,31334.40
2023-08-15T10:31:13.845Z,28200.96
2023-08-15T10:32:13.912Z,23500.80
2023-08-15T10:33:13.044Z,34467.84
2023-08-15T10:34:13.013Z,34467.84
2023-08-15T10:35:12.867Z,34467.84
2023-08-15T10:36:12.868Z,37601.28
2023-08-15T10:37:12.772Z,37601.28
2023-08-15T10:38:13.863Z,37601.28
2023-08-15T10:39:17.915Z,37601.28
2023-08-15T10:40:12.968Z,37601.28
2023-08-15T10:41:12.701Z,37601.28
2023-08-15T10:42:13.650Z,34467.84
2023-08-15T10:43:13.734Z,34467.84
2023-08-15T10:44:13.642Z,28200.96
2023-08-15T10:45:13.806Z,25067.52
2023-08-15T10:46:13.841Z,28200.96
2023-08-15T10:47:12.773Z,31334.40
2023-08-15T10:48:13.896Z,23500.80
2023-08-15T10:49:12.807Z,12533.76
2023-08-15T10:50:19.345Z,12533.76
2023-08-15T10:51:13.437Z,17233.92
2023-08-15T10:52:13.380Z,20367.36
2023-08-15T10:53:13.266Z,18800.64
2023-08-15T10:54:13.205Z,14100.48
2023-08-15T10:55:13.262Z,14100.48
2023-08-15T10:56:13.210Z,15667.20
2023-08-15T10:57:13.043Z,28200.96
2023-08-15T10:58:12.777Z,28200.96
2023-08-15T10:59:13.881Z,28200.96
2023-08-15T11:00:12.838Z,28200.96
2023-08-15T11:01:13.943Z,28200.96
2023-08-15T11:02:12.858Z,25067.52
2023-08-15T11:03:13.777Z,25067.52
2023-08-15T11:04:13.703Z,25067.52
2023-08-15T11:05:13.790Z,28200.96
2023-08-15T11:06:13.814Z,25067.52
2023-08-15T11:07:13.642Z,25067.52
2023-08-15T11:08:13.686Z,25067.52
2023-08-15T11:09:13.566Z,21934.08
2023-08-15T11:10:13.632Z,15667.20
2023-08-15T11:11:13.515Z,17233.92
2023-08-15T11:12:13.448Z,17233.92
2023-08-15T11:13:13.351Z,18800.64
2023-08-15T11:14:13.409Z,20367.36
2023-08-15T11:15:13.437Z,15667.20
2023-08-15T11:16:13.474Z,15667.20
2023-08-15T11:17:13.600Z,15667.20
2023-08-15T11:18:13.517Z,15667.20
2023-08-15T11:19:13.389Z,18800.64
2023-08-15T11:20:13.149Z,18800.64
2023-08-15T11:21:13.327Z,17233.92
2023-08-15T11:22:13.492Z,17233.92
2023-08-15T11:23:13.567Z,17233.92
2023-08-15T11:24:13.327Z,20367.36
2023-08-15T11:25:13.141Z,21934.08
2023-08-15T11:26:13.148Z,20367.36
2023-08-15T11:27:13.241Z,20367.36
2023-08-15T11:28:13.102Z,20367.36
2023-08-15T11:29:13.074Z,20367.36
2023-08-15T11:30:13.174Z,18800.64
2023-08-15T11:32:13.240Z,18800.64
2023-08-15T11:33:13.282Z,17233.92
2023-08-15T11:34:13.385Z,20367.36
2023-08-15T11:35:13.496Z,20367.36
2023-08-15T11:36:13.414Z,20367.36
2023-08-15T11:37:13.286Z,23500.80
2023-08-15T11:38:13.325Z,23500.80
2023-08-15T11:39:13.276Z,21934.08
2023-08-15T11:40:13.380Z,20367.36
2023-08-15T11:41:13.321Z,18800.64
2023-08-15T11:42:13.216Z,18800.64
2023-08-15T11:43:13.087Z,15667.20
2023-08-15T11:44:12.999Z,17233.92
2023-08-15T11:45:12.971Z,18800.64
2023-08-15T11:46:12.960Z,20367.36
2023-08-15T11:47:12.903Z,21934.08
2023-08-15T11:48:19.587Z,23500.80
2023-08-15T11:49:13.552Z,21934.08
2023-08-15T11:50:13.421Z,18800.64
2023-08-15T11:51:13.512Z,23500.80
2023-08-15T11:52:13.401Z,25067.52
2023-08-15T11:53:13.313Z,34467.84
2023-08-15T11:54:13.228Z,21934.08
2023-08-15T11:55:13.078Z,21934.08
2023-08-15T11:56:13.304Z,18800.64
2023-08-15T11:57:13.233Z,31334.40
2023-08-15T11:58:13.183Z,25067.52
2023-08-15T11:59:12.993Z,25067.52
2023-08-15T12:00:13.014Z,28200.96
2023-08-15T12:01:13.072Z,31334.40
2023-08-15T12:02:13.184Z,34467.84
2023-08-15T12:03:13.317Z,34467.84
2023-08-15T12:04:13.471Z,34467.84
2023-08-15T12:05:13.440Z,31334.40
2023-08-15T12:06:13.808Z,31334.40
2023-08-15T12:07:13.797Z,28200.96
2023-08-15T12:08:13.784Z,28200.96
2023-08-15T12:09:13.691Z,28200.96
2023-08-15T12:10:13.861Z,28200.96
2023-08-15T12:11:12.967Z,31334.40
2023-08-15T12:12:12.887Z,31334.40
2023-08-15T12:13:13.719Z,31334.40
2023-08-15T12:14:13.559Z,31334.40
2023-08-15T12:15:13.591Z,31334.40
2023-08-15T12:16:13.557Z,31334.40
2023-08-15T12:17:13.639Z,34467.84
2023-08-15T12:18:13.552Z,20367.36
2023-08-15T12:19:13.326Z,15667.20
2023-08-15T12:20:13.347Z,31334.40
2023-08-15T12:21:14.328Z,17233.92
2023-08-15T12:22:13.022Z,20367.36
2023-08-15T12:23:22.784Z,21934.08
2023-08-15T12:24:13.236Z,20367.36